Time;durP1;ratioP1;P1;durP2;ratioP2;P2;SDS_P1;SDS_P2;PMS_P1;PMS_P2;Temp;Humidity;BMP_temperature;BMP_pressure;BME280_temperature;BME280_humidity;BME280_pressure;Samples;Min_cycle;Max_cycle;Signal;HPM_P1;HPM_P2
2021/06/08 00:00:26;;;;;;;5.25;2.27;;;;;;;22.62;54.44;101270.52;1756239;80;21017;-49
2021/06/08 00:02:53;;;;;;;4.03;2.47;;;;;;;22.63;54.56;101264.72;1766520;80;20998;-50
2021/06/08 00:05:20;;;;;;;2.30;2.10;;;;;;;22.64;54.71;101263.31;1760397;80;20983;-49
2021/06/08 00:07:47;;;;;;;3.42;2.33;;;;;;;22.66;54.75;101261.88;1757621;80;21063;-49
2021/06/08 00:10:14;;;;;;;4.67;1.90;;;;;;;22.66;54.71;101261.88;1748151;80;21068;-49
2021/06/08 00:12:40;;;;;;;4.50;2.77;;;;;;;22.65;54.64;101258.38;1754581;80;21010;-50
2021/06/08 00:15:08;;;;;;;3.67;2.40;;;;;;;22.64;54.68;101261.98;1770326;80;21532;-49
2021/06/08 00:17:35;;;;;;;4.28;2.30;;;;;;;22.67;54.75;101262.74;1762046;80;21002;-49
2021/06/08 00:20:04;;;;;;;4.30;2.12;;;;;;;22.69;54.83;101262.17;1757878;80;21020;-50
2021/06/08 00:22:31;;;;;;;3.75;2.50;;;;;;;22.70;54.92;101251.45;1777614;80;20998;-50
2021/06/08 00:24:59;;;;;;;3.55;2.20;;;;;;;22.68;55.00;101256.47;1763401;80;21006;-49
2021/06/08 00:27:25;;;;;;;9.20;2.40;;;;;;;22.65;55.18;101253.06;1768410;80;21060;-50
2021/06/08 00:29:52;;;;;;;3.08;2.50;;;;;;;22.63;55.55;101248.33;1767705;80;21030;-49
2021/06/08 00:32:19;;;;;;;3.50;2.02;;;;;;;22.61;55.91;101244.92;1766252;80;21551;-49
2021/06/08 00:34:46;;;;;;;2.77;2.50;;;;;;;22.62;56.21;101241.81;1760168;80;21046;-49
2021/06/08 00:37:13;;;;;;;3.05;2.10;;;;;;;22.63;56.61;101241.70;1757804;80;21007;-49
2021/06/08 00:39:40;;;;;;;2.80;2.52;;;;;;;22.64;57.07;101246.54;1764502;80;20998;-50
2021/06/08 05:37:13;;;;;;;9.05;3.67;;;;;;;22.31;60.74;101355.55;1794285;78;26119;-59
2021/06/08 05:39:41;;;;;;;5.85;3.90;;;;;;;23.69;56.08;101359.52;1751165;80;21074;-57
2021/06/08 05:42:13;;;;;;;14.55;3.87;;;;;;;24.05;55.10;101357.07;1745429;80;21066;-57
2021/06/08 05:44:40;;;;;;;4.90;3.52;;;;;;;24.28;54.61;101363.97;1759476;80;20991;-57
2021/06/08 05:47:07;;;;;;;5.55;2.80;;;;;;;24.49;54.05;101367.78;1750055;80;21045;-58
2021/06/08 05:49:36;;;;;;;5.30;4.00;;;;;;;24.67;53.62;101365.16;1751328;80;21077;-57
2021/06/08 05:52:07;;;;;;;11.53;3.62;;;;;;;24.88;53.54;101369.00;1738008;80;21044;-57
2021/06/08 05:54:34;;;;;;;6.00;3.02;;;;;;;25.12;52.80;101372.58;1750134;80;21490;-57
2021/06/08 05:57:01;;;;;;;5.08;2.87;;;;;;;25.33;52.10;101367.47;1756955;80;21011;-58
2021/06/08 05:59:28;;;;;;;9.83;2.55;;;;;;;25.54;51.28;101372.11;1774872;80;21073;-58
2021/06/08 06:01:54;;;;;;;6.67;2.98;;;;;;;25.74;50.48;101366.14;1764876;79;21062;-58
2021/06/08 06:04:24;;;;;;;6.17;3.33;;;;;;;26.11;48.80;101363.39;1769868;80;21010;-58
2021/06/08 06:06:50;;;;;;;7.40;3.50;;;;;;;26.27;48.40;101358.58;1751179;80;21079;-58
2021/06/08 06:09:20;;;;;;;4.75;2.80;;;;;;;26.27;48.40;101358.58;1749579;80;21067;-59
2021/06/08 06:11:47;;;;;;;5.80;2.55;;;;;;;26.20;48.53;101356.00;1753461;80;21049;-58
2021/06/08 06:14:16;;;;;;;9.48;3.00;;;;;;;26.34;48.51;101357.11;1756825;80;21525;-58
2021/06/08 06:16:49;;;;;;;3.60;2.52;;;;;;;26.63;48.34;101359.20;1706840;83;21121;-58
2021/06/08 06:19:15;;;;;;;2.72;2.20;;;;;;;27.22;47.22;101363.77;1711088;83;20990;-58
2021/06/08 06:21:42;;;;;;;6.47;2.80;;;;;;;27.63;46.18;101365.77;1696550;82;21002;-58
2021/06/08 06:24:12;;;;;;;4.25;2.85;;;;;;;27.89;45.13;101368.44;1700377;82;21062;-58
2021/06/08 06:26:43;;;;;;;4.58;3.15;;;;;;;28.04;44.01;101369.00;1691223;83;21062;-58
2021/06/08 06:29:13;;;;;;;3.05;2.30;;;;;;;28.09;43.79;101362.75;1667091;83;21517;-57
2021/06/08 06:31:44;;;;;;;3.85;2.45;;;;;;;28.10;43.62;101359.11;1678507;84;21270;-58
2021/06/08 06:34:13;;;;;;;5.08;2.67;;;;;;;28.00;43.85;101360.39;1661776;84;21077;-58
2021/06/08 06:36:39;;;;;;;5.12;2.70;;;;;;;27.94;44.50;101357.35;1638035;84;21113;-58
2021/06/08 06:39:17;;;;;;;4.60;2.70;;;;;;;27.86;44.34;101359.83;1665573;85;21075;-58
2021/06/08 06:41:47;;;;;;;11.55;2.98;;;;;;;27.76;43.68;101359.73;1636499;85;21085;-58
2021/06/08 06:44:14;;;;;;;4.28;3.25;;;;;;;27.67;44.13;101359.66;1617339;88;21579;-58
2021/06/08 06:46:41;;;;;;;4.40;2.55;;;;;;;27.61;44.84;101356.17;1628819;87;21062;-58
2021/06/08 06:49:08;;;;;;;4.53;2.67;;;;;;;27.55;45.06;101367.38;1620087;87;21059;-59
2021/06/08 06:51:35;;;;;;;4.28;2.75;;;;;;;27.48;45.47;101364.83;1586435;87;21550;-58
2021/06/08 06:54:03;;;;;;;4.40;2.80;;;;;;;27.37;45.33;101361.23;1622800;86;21070;-58
2021/06/08 06:56:29;;;;;;;4.97;3.00;;;;;;;27.28;45.80;101357.10;1610506;87;21149;-58
2021/06/08 06:58:57;;;;;;;5.87;2.83;;;;;;;27.20;46.42;101358.22;1594622;88;21065;-57
2021/06/08 07:01:25;;;;;;;4.80;2.92;;;;;;;27.13;46.85;101364.54;1586082;86;21053;-58
2021/06/08 07:03:53;;;;;;;5.75;3.20;;;;;;;27.12;47.13;101360.16;1609721;87;21603;-58
2021/06/08 07:06:21;;;;;;;4.40;2.90;;;;;;;27.22;47.07;101357.09;1616104;87;21017;-58
2021/06/08 07:08:53;;;;;;;4.58;2.87;;;;;;;27.38;46.71;101354.92;1606868;87;21069;-59
2021/06/08 07:11:20;;;;;;;5.10;3.17;;;;;;;27.49;46.74;101357.19;1660448;84;21037;-58
2021/06/08 07:13:47;;;;;;;4.58;3.12;;;;;;;27.50;46.68;101355.72;1680768;82;21091;-57
2021/06/08 07:16:15;;;;;;;4.47;2.87;;;;;;;27.48;46.62;101352.80;1703459;82;21037;-58
2021/06/08 07:18:42;;;;;;;2.47;2.22;;;;;;;27.43;46.75;101361.20;1680201;83;21083;-58
2021/06/08 07:21:09;;;;;;;3.40;3.10;;;;;;;27.41;45.85;101351.12;1635223;84;21055;-58
2021/06/08 07:23:36;;;;;;;3.98;3.02;;;;;;;27.43;45.51;101353.69;1605823;86;21093;-59
2021/06/08 07:26:04;;;;;;;6.37;3.08;;;;;;;27.43;44.75;101351.02;1642875;84;21074;-59
2021/06/08 07:28:31;;;;;;;3.20;2.60;;;;;;;27.43;45.50;101347.83;1639438;85;21005;-59
2021/06/08 07:30:59;;;;;;;3.95;2.87;;;;;;;27.44;46.22;101347.35;1646696;86;21501;-58
2021/06/08 07:33:47;;;;;;;4.33;2.92;;;;;;;27.41;46.79;101350.30;1658332;85;21125;-58
2021/06/08 07:36:28;;;;;;;3.50;2.95;;;;;;;27.39;47.22;101348.58;1702592;81;21044;-59
2021/06/08 07:39:02;;;;;;;4.70;3.05;;;;;;;27.42;46.97;101349.30;1679012;83;21093;-59
2021/06/08 07:41:43;;;;;;;4.03;2.70;;;;;;;27.43;46.49;101345.67;1637122;86;21743;-59
2021/06/08 07:44:18;;;;;;;5.50;2.62;;;;;;;27.44;45.75;101347.35;1643607;85;21015;-58
2021/06/08 07:46:45;;;;;;;3.30;2.33;;;;;;;27.47;45.08;101346.60;1641815;86;21650;-58
2021/06/08 07:49:12;;;;;;;3.95;2.58;;;;;;;27.47;45.11;101348.45;1643267;86;21102;-59
2021/06/08 07:51:42;;;;;;;3.25;2.60;;;;;;;27.47;44.68;101347.11;1627475;86;21055;-58
2021/06/08 07:54:11;;;;;;;5.33;3.20;;;;;;;27.47;45.00;101344.44;1635450;86;21617;-58
2021/06/08 07:56:38;;;;;;;6.25;3.02;;;;;;;27.47;44.96;101348.45;1607858;87;21087;-59
2021/06/08 07:59:05;;;;;;;3.17;2.15;;;;;;;27.48;44.98;101344.78;1637237;85;21040;-57
2021/06/08 08:01:33;;;;;;;3.60;2.30;;;;;;;27.49;44.52;101344.69;1608910;87;21215;-61
2021/06/08 08:03:59;;;;;;;9.80;3.05;;;;;;;27.51;44.03;101345.88;1634634;86;21478;-56
2021/06/08 08:06:26;;;;;;;4.40;2.50;;;;;;;27.52;44.17;101350.23;1639291;85;21089;-59
2021/06/08 08:08:54;;;;;;;3.10;2.50;;;;;;;27.50;44.35;101348.18;1634535;85;21604;-59
2021/06/08 08:11:22;;;;;;;4.00;2.80;;;;;;;27.49;44.45;101345.16;1631396;85;21022;-59
2021/06/08 08:13:50;;;;;;;7.75;3.37;;;;;;;27.49;44.71;101350.03;1606489;87;21139;-58
2021/06/08 08:16:17;;;;;;;3.52;3.00;;;;;;;27.51;44.51;101359.25;1588126;88;21099;-58
2021/06/08 08:18:44;;;;;;;4.67;2.45;;;;;;;27.51;44.51;101359.25;1604773;88;21417;-59
2021/06/08 08:21:14;;;;;;;6.08;2.85;;;;;;;27.56;44.81;101367.72;1636523;86;21076;-59
2021/06/08 08:23:41;;;;;;;2.80;2.58;;;;;;;27.58;44.11;101361.75;1639624;85;21660;-59
2021/06/08 08:26:09;;;;;;;3.77;2.85;;;;;;;27.60;44.30;101359.80;1640965;86;21078;-59
2021/06/08 08:28:37;;;;;;;3.33;3.00;;;;;;;27.63;44.36;101359.56;1634538;86;21564;-59
2021/06/08 08:31:17;;;;;;;4.95;2.80;;;;;;;27.66;44.91;101363.30;1620588;86;21060;-60
2021/06/08 08:33:44;;;;;;;6.97;3.00;;;;;;;27.69;45.28;101363.06;1599238;87;21206;-59
2021/06/08 08:36:11;;;;;;;6.12;3.22;;;;;;;27.73;44.99;101359.15;1621895;86;21145;-58
2021/06/08 08:38:38;;;;;;;4.50;3.00;;;;;;;27.77;44.40;101356.09;1687731;83;21087;-59
2021/06/08 08:41:23;;;;;;;5.05;3.00;;;;;;;27.82;43.87;101355.72;1710006;83;21033;-59
2021/06/08 08:43:51;;;;;;;3.85;2.62;;;;;;;27.86;43.93;101349.95;1701692;83;21472;-57
2021/06/08 08:46:19;;;;;;;4.50;2.90;;;;;;;27.91;43.32;101346.90;1706569;82;21153;-59
2021/06/08 08:48:47;;;;;;;4.78;3.10;;;;;;;27.66;43.83;101351.27;1713967;83;21033;-59
2021/06/08 08:51:16;;;;;;;10.08;5.97;;;;;;;27.66;43.86;101353.46;1711545;83;21029;-59
2021/06/08 08:53:44;;;;;;;3.98;3.58;;;;;;;27.68;43.59;101348.83;1713190;83;21077;-59
2021/06/08 08:56:10;;;;;;;3.90;2.60;;;;;;;27.70;43.70;101342.05;1703854;83;21938;-59
2021/06/08 08:58:37;;;;;;;4.92;3.02;;;;;;;27.86;43.06;101338.43;1707145;83;20978;-60
2021/06/08 09:01:04;;;;;;;6.28;2.67;;;;;;;27.93;42.94;101342.27;1683103;83;20995;-59
2021/06/08 09:03:31;;;;;;;5.15;3.25;;;;;;;27.98;42.75;101340.95;1684350;83;21599;-59
2021/06/08 09:06:00;;;;;;;6.08;3.20;;;;;;;28.01;42.87;101350.03;1689371;83;21018;-59
2021/06/08 09:08:27;;;;;;;3.90;2.80;;;;;;;28.04;42.95;101339.09;1702044;83;21047;-60
2021/06/08 09:10:55;;;;;;;3.62;2.90;;;;;;;28.08;42.98;101347.69;1664535;85;21050;-60
2021/06/08 09:13:22;;;;;;;4.20;3.20;;;;;;;28.09;44.00;101350.23;1671338;84;21091;-59
2021/06/08 09:15:49;;;;;;;4.25;2.62;;;;;;;28.11;45.69;101356.77;1687851;85;21022;-59
2021/06/08 09:18:16;;;;;;;4.12;3.05;;;;;;;28.09;45.66;101354.72;1685465;85;21009;-59
2021/06/08 09:20:43;;;;;;;4.53;2.75;;;;;;;28.07;44.53;101349.99;1685136;85;21053;-60
2021/06/08 09:23:10;;;;;;;4.35;2.83;;;;;;;28.04;43.96;101350.27;1687974;85;21611;-60
2021/06/08 09:25:45;;;;;;;5.40;2.75;;;;;;;28.00;43.75;101343.00;1686766;85;21029;-58
2021/06/08 09:28:31;;;;;;;6.75;3.35;;;;;;;27.99;43.82;101337.28;1685227;84;21057;-59
2021/06/08 09:31:15;;;;;;;4.28;2.85;;;;;;;27.98;44.58;101342.77;1749157;81;21081;-59
2021/06/08 09:33:51;;;;;;;3.83;2.72;;;;;;;27.98;44.44;101340.09;1737919;81;21013;-59
2021/06/08 09:36:30;;;;;;;5.00;2.72;;;;;;;27.99;44.43;101340.44;1651244;86;21550;-59
2021/06/08 09:39:01;;;;;;;3.62;2.87;;;;;;;27.99;44.04;101333.75;1630380;86;21047;-59
2021/06/08 09:41:43;;;;;;;6.22;2.90;;;;;;;28.00;44.48;101335.46;1627282;86;20999;-59
2021/06/08 09:44:10;;;;;;;7.12;2.95;;;;;;;27.99;44.84;101331.08;1593606;88;21144;-60
2021/06/08 09:46:45;;;;;;;;;;;;;;;27.97;45.04;101330.36;1602569;88;21071;-59
2021/06/08 09:49:15;;;;;;;7.17;2.50;;;;;;;27.95;45.37;101329.13;1627115;86;20150;-60
2021/06/08 09:54:42;;;;;;;4.50;2.40;;;;;;;27.91;45.97;101326.84;1789034;79;26316;-51
2021/06/08 10:01:23;;;;;;;4.70;3.22;;;;;;;27.26;48.53;101327.84;1779044;78;27263;-49
2021/06/08 10:03:56;;;;;;;5.15;2.72;;;;;;;27.82;47.51;101327.64;1701998;82;20982;-49
2021/06/08 10:06:39;;;;;;;2.92;2.35;;;;;;;27.88;47.51;101315.08;1700488;83;21555;-49
2021/06/08 10:09:12;;;;;;;4.42;2.72;;;;;;;27.89;47.22;101314.08;1691245;82;21556;-48
2021/06/08 10:11:41;;;;;;;3.17;2.42;;;;;;;27.90;46.91;101314.45;1704391;82;21008;-49
2021/06/08 10:14:17;;;;;;;3.98;2.52;;;;;;;27.91;46.78;101314.80;1704095;82;21065;-48
2021/06/08 10:16:45;;;;;;;3.70;2.25;;;;;;;27.90;46.58;101311.27;1601060;87;21020;-49
2021/06/08 10:19:27;;;;;;;4.58;2.77;;;;;;;27.88;46.63;101307.87;1606075;87;21600;-48
2021/06/08 10:21:54;;;;;;;4.87;2.37;;;;;;;27.81;46.67;101312.55;1590282;89;21627;-49
2021/06/08 10:24:24;;;;;;;6.30;2.60;;;;;;;27.73;46.93;101303.85;1607620;88;21119;-48
2021/06/08 10:26:53;;;;;;;3.80;2.60;;;;;;;27.70;46.97;101304.61;1605447;87;21062;-48
2021/06/08 10:29:22;;;;;;;7.15;2.72;;;;;;;27.68;47.09;101302.04;1610540;87;21086;-48
2021/06/08 10:31:49;;;;;;;3.45;3.15;;;;;;;27.66;47.18;101301.80;1612874;87;20991;-48
2021/06/08 10:34:16;;;;;;;4.62;2.70;;;;;;;27.64;47.25;101302.42;1604940;87;21062;-48
2021/06/08 10:36:44;;;;;;;3.37;2.87;;;;;;;27.63;47.25;101294.05;1608526;87;21513;-48
2021/06/08 10:39:14;;;;;;;4.67;2.65;;;;;;;27.62;47.03;101289.19;1607185;88;21087;-48
2021/06/08 10:41:43;;;;;;;6.17;2.92;;;;;;;27.64;46.69;101287.72;1615380;87;21613;-48
2021/06/08 10:44:23;;;;;;;3.25;2.98;;;;;;;27.66;45.83;101277.73;1599889;87;21093;-48
2021/06/08 10:47:01;;;;;;;5.55;3.50;;;;;;;27.68;45.77;101280.65;1525534;92;21058;-48
2021/06/08 10:49:39;;;;;;;4.15;2.47;;;;;;;27.64;46.03;101275.20;1485103;95;21134;-48
2021/06/08 10:52:10;;;;;;;5.12;2.65;;;;;;;27.62;46.04;101265.61;1479070;95;21058;-48
2021/06/08 10:54:44;;;;;;;3.98;2.45;;;;;;;27.56;46.51;101263.45;1484703;95;21135;-48
2021/06/08 10:57:14;;;;;;;2.75;2.50;;;;;;;27.54;46.54;101269.42;1402987;99;21173;-48
2021/06/08 10:59:48;;;;;;;3.87;2.47;;;;;;;27.55;46.89;101264.45;1397523;101;21140;-48
2021/06/08 11:02:47;;;;;;;5.78;2.72;;;;;;;27.55;47.34;101253.28;1398901;101;21194;-48
2021/06/08 11:05:16;;;;;;;3.65;2.50;;;;;;;27.62;47.60;101252.24;1393500;101;21099;-49
2021/06/08 11:07:50;;;;;;;3.70;2.77;;;;;;;27.64;47.50;101256.97;1395544;102;21603;-48
2021/06/08 11:10:31;;;;;;;3.08;2.47;;;;;;;27.68;47.29;101250.37;1410651;101;21173;-48
2021/06/08 11:13:17;;;;;;;3.75;2.47;;;;;;;27.74;47.08;101251.23;1422270;99;21453;-51
2021/06/08 11:15:50;;;;;;;5.53;5.03;;;;;;;27.78;46.64;101248.64;1437518;98;21671;-48
2021/06/08 11:18:38;;;;;;;6.47;3.27;;;;;;;27.76;46.61;101246.59;1435103;99;21313;-48
2021/06/08 11:21:12;;;;;;;12.78;11.53;;;;;;;27.72;46.60;101250.51;1436297;99;21170;-50
2021/06/08 11:23:42;;;;;;;6.83;6.17;;;;;;;27.65;46.65;101239.48;1405781;101;21153;-48
2021/06/08 11:26:16;;;;;;;5.35;3.45;;;;;;;27.61;47.03;101230.03;1387546;103;21171;-48
2021/06/08 11:28:47;;;;;;;4.08;2.55;;;;;;;27.61;46.97;101231.84;1359337;104;21098;-48
2021/06/08 11:31:18;;;;;;;4.62;2.45;;;;;;;27.58;46.78;101227.60;1362253;104;21696;-50
2021/06/08 11:33:48;;;;;;;3.00;2.42;;;;;;;27.58;46.80;101218.73;1363965;104;21565;-47
2021/06/08 11:36:29;;;;;;;5.17;2.37;;;;;;;27.60;46.93;101219.44;1373723;103;21145;-49
2021/06/08 11:39:20;;;;;;;3.87;2.62;;;;;;;27.63;47.12;101223.20;1349429;104;21316;-48
2021/06/08 11:41:58;;;;;;;4.92;2.17;;;;;;;27.66;47.48;101220.25;1375114;101;21130;-50
2021/06/08 11:44:24;;;;;;;5.25;2.50;;;;;;;27.67;47.37;101220.63;1415177;99;21156;-48
2021/06/08 11:47:01;;;;;;;3.92;2.70;;;;;;;27.65;47.38;101215.42;1433464;97;21141;-48
2021/06/08 11:49:29;;;;;;;6.12;2.40;;;;;;;27.59;47.59;101207.92;1412601;98;21062;-49
2021/06/08 11:54:43;;;;;;;3.02;2.65;;;;;;;27.46;48.37;101201.06;1461789;96;21636;-49
2021/06/08 11:57:15;;;;;;;2.62;2.30;;;;;;;27.41;48.76;101197.95;1466876;97;21073;-48
2021/06/08 11:59:56;;;;;;;4.15;2.50;;;;;;;27.37;49.00;101195.53;1473298;94;21122;-48
2021/06/08 12:02:34;;;;;;;3.37;2.35;;;;;;;27.37;49.01;101199.53;1516399;94;21118;-48
2021/06/08 12:05:24;;;;;;;3.25;2.72;;;;;;;27.33;49.04;101196.73;1525547;92;21019;-49
2021/06/08 12:08:03;;;;;;;4.30;2.60;;;;;;;27.29;49.02;101193.95;1526302;92;21031;-48
2021/06/08 12:10:37;;;;;;;3.60;2.50;;;;;;;27.23;48.92;101185.13;1520334;92;21019;-49
2021/06/08 12:13:04;;;;;;;7.00;4.55;;;;;;;27.19;48.98;101180.16;1518897;92;21033;-50
2021/06/08 12:15:35;;;;;;;5.40;4.60;;;;;;;27.11;49.49;101180.82;1512148;94;21108;-50
2021/06/08 12:18:13;;;;;;;6.92;5.05;;;;;;;27.14;49.63;101180.55;1465372;97;21088;-48
2021/06/08 12:20:45;;;;;;;4.97;3.40;;;;;;;27.14;49.63;101180.55;1470722;96;21608;-49
2021/06/08 12:23:28;;;;;;;3.22;2.45;;;;;;;27.16;49.59;101183.11;1486751;94;21084;-48
2021/06/08 12:26:09;;;;;;;4.22;2.40;;;;;;;27.18;49.40;101173.97;1474743;96;21042;-49
2021/06/08 12:28:38;;;;;;;3.67;2.77;;;;;;;27.24;49.29;101177.45;1473312;96;21080;-49
2021/06/08 12:31:19;;;;;;;3.47;2.55;;;;;;;27.28;49.27;101178.92;1463971;96;21047;-49
2021/06/08 12:33:47;;;;;;;2.80;2.10;;;;;;;27.31;49.42;101175.97;1470321;96;21104;-48
2021/06/08 12:36:15;;;;;;;4.87;2.62;;;;;;;27.33;49.21;101172.68;1487102;94;21090;-49
2021/06/08 12:38:50;;;;;;;7.37;2.65;;;;;;;27.36;49.03;101182.30;1518764;91;21088;-48
2021/06/08 12:41:17;;;;;;;3.98;2.50;;;;;;;27.31;49.06;101177.31;1580084;91;21050;-48
2021/06/08 12:43:52;;;;;;;6.62;2.62;;;;;;;27.33;48.89;101170.01;1553107;92;21097;-48
2021/06/08 12:46:32;;;;;;;2.52;2.30;;;;;;;27.38;48.73;101171.84;1545467;92;21044;-48
2021/06/08 12:49:06;;;;;;;3.53;2.60;;;;;;;27.42;48.62;101168.89;1542692;92;21081;-48
2021/06/08 12:51:36;;;;;;;3.17;2.08;;;;;;;27.43;48.07;101169.27;1537031;92;21377;-49
2021/06/08 12:54:08;;;;;;;4.50;2.37;;;;;;;27.43;48.07;101169.27;1577147;88;21063;-49
2021/06/08 12:56:36;;;;;;;6.30;3.37;;;;;;;27.44;48.03;101165.13;1593538;88;21071;-49
2021/06/08 12:59:03;;;;;;;4.92;3.00;;;;;;;27.47;47.91;101162.68;1599110;88;21637;-48
2021/06/08 13:01:30;;;;;;;4.62;2.30;;;;;;;27.51;47.71;101158.77;1595878;88;21050;-49
2021/06/08 13:03:58;;;;;;;6.40;3.05;;;;;;;27.54;46.82;101161.16;1596997;88;21063;-48
2021/06/08 13:06:26;;;;;;;3.90;2.30;;;;;;;27.54;46.59;101158.00;1629493;86;21108;-48
2021/06/08 13:08:54;;;;;;;3.60;2.22;;;;;;;27.55;46.54;101158.86;1627351;87;21038;-48
2021/06/08 13:11:26;;;;;;;6.22;2.30;;;;;;;27.54;46.44;101149.13;1640855;86;21593;-50
2021/06/08 13:13:54;;;;;;;2.35;1.98;;;;;;;27.52;46.60;101147.94;1640927;83;21174;-48
2021/06/08 13:16:38;;;;;;;6.15;2.33;;;;;;;27.52;46.62;101144.41;1698722;81;21078;-48
2021/06/08 13:19:23;;;;;;;4.00;2.35;;;;;;;27.53;46.68;101143.44;1699970;82;21136;-50
2021/06/08 13:21:53;;;;;;;5.08;2.80;;;;;;;27.54;46.62;101147.31;1701032;82;21525;-48
2021/06/08 13:24:26;;;;;;;3.95;2.52;;;;;;;27.48;46.94;101140.30;1623574;87;21109;-49
2021/06/08 13:27:12;;;;;;;2.90;1.90;;;;;;;27.41;46.96;101136.48;1609552;87;21547;-49
2021/06/08 13:29:40;;;;;;;4.15;2.00;;;;;;;27.36;47.12;101135.05;1601538;88;21119;-48
2021/06/08 13:32:07;;;;;;;4.25;2.10;;;;;;;27.30;47.22;101138.22;1608540;87;21654;-49
2021/06/08 13:34:34;;;;;;;4.80;2.52;;;;;;;27.22;47.90;101139.33;1612369;87;21867;-48
2021/06/08 13:37:04;;;;;;;3.50;2.52;;;;;;;27.12;48.81;101136.27;1608627;87;21498;-48
2021/06/08 13:39:42;;;;;;;5.75;2.62;;;;;;;27.01;49.52;101134.49;1594258;88;21037;-48
2021/06/08 13:42:19;;;;;;;3.05;2.62;;;;;;;26.92;50.88;101129.91;1608185;86;21582;-49
2021/06/08 13:45:02;;;;;;;5.78;2.40;;;;;;;26.84;51.73;101127.03;1600827;88;21096;-48
2021/06/08 13:47:32;;;;;;;3.45;2.42;;;;;;;26.79;52.28;101123.89;1572339;90;21103;-48
2021/06/08 13:50:00;;;;;;;3.02;2.47;;;;;;;26.77;52.91;101137.85;1520263;93;21613;-49
2021/06/08 13:53:00;;;;;;;2.58;2.33;;;;;;;26.75;52.17;101139.80;1523710;93;21623;-48
2021/06/08 13:55:33;;;;;;;2.40;2.12;;;;;;;26.78;52.67;101135.56;1481877;95;21169;-49
2021/06/08 14:01:13;;;;;;;2.20;2.00;;;;;;;26.86;52.10;101125.08;1440974;97;21175;-49
2021/06/08 14:03:41;;;;;;;2.67;1.77;;;;;;;26.90;51.78;101119.84;1420763;98;21858;-48
2021/06/08 14:06:16;;;;;;;2.85;2.45;;;;;;;26.94;51.54;101124.43;1429600;99;21670;-49
2021/06/08 14:09:08;;;;;;;2.47;2.27;;;;;;;26.96;50.98;101117.14;1428009;99;21594;-49
2021/06/08 14:11:38;;;;;;;4.20;2.58;;;;;;;26.98;50.84;101124.05;1411847;100;21140;-49
2021/06/08 14:14:05;;;;;;;7.30;3.00;;;;;;;27.00;50.66;101118.57;1415838;100;21105;-49
2021/06/08 14:16:32;;;;;;;6.80;2.98;;;;;;;26.98;50.71;101119.19;1415771;100;21127;-49
2021/06/08 14:19:00;;;;;;;5.90;3.25;;;;;;;26.94;50.92;101122.62;1408661;99;21623;-49
2021/06/08 14:21:28;;;;;;;13.68;3.85;;;;;;;26.90;51.30;101119.84;1467227;94;21162;-48
2021/06/08 14:23:57;;;;;;;8.60;3.52;;;;;;;26.95;51.04;101127.00;1520525;92;21154;-49
2021/06/08 14:26:29;;;;;;;11.97;4.20;;;;;;;26.89;51.52;101120.84;1534337;92;21048;-49
2021/06/08 14:29:02;;;;;;;8.78;3.22;;;;;;;26.84;51.77;101127.03;1516753;93;21083;-51
2021/06/08 14:31:42;;;;;;;8.55;3.12;;;;;;;26.77;51.93;101119.16;1461582;97;21596;-49
2021/06/08 14:34:08;;;;;;;8.75;3.08;;;;;;;26.72;51.30;101120.05;1441694;97;21631;-50
2021/06/08 14:36:38;;;;;;;6.50;3.05;;;;;;;26.67;50.60;101116.88;1430430;99;21102;-49
2021/06/08 14:39:05;;;;;;;3.62;2.30;;;;;;;26.63;50.13;101110.09;1440160;98;21137;-50
2021/06/08 14:41:32;;;;;;;3.22;2.37;;;;;;;26.63;50.13;101110.09;1458052;98;21158;-50
2021/06/08 14:44:07;;;;;;;4.78;2.22;;;;;;;26.62;49.83;101116.42;1470048;96;21210;-49
2021/06/08 14:46:56;;;;;;;6.78;2.87;;;;;;;26.60;49.77;101113.03;1511432;92;21062;-50
2021/06/08 14:49:25;;;;;;;10.03;4.47;;;;;;;26.58;49.47;101112.31;1526505;91;21134;-50
2021/06/08 14:51:52;;;;;;;9.38;4.12;;;;;;;26.55;49.71;101106.73;1528976;93;21057;-48
2021/06/08 14:54:19;;;;;;;10.05;4.55;;;;;;;26.53;50.05;101109.16;1561811;90;21054;-49
2021/06/08 14:57:01;;;;;;;16.70;4.95;;;;;;;26.45;50.96;101115.14;1568973;89;21084;-49
2021/06/08 14:59:51;;;;;;;11.83;4.45;;;;;;;26.45;50.96;101115.14;1542858;90;21621;-49
2021/06/08 15:02:30;;;;;;;17.73;11.65;;;;;;;26.44;50.90;101116.61;1534018;91;21084;-49
2021/06/08 15:08:21;;;;;;;13.18;8.55;;;;;;;26.44;51.61;101101.93;1557666;91;21084;-50
2021/06/08 15:11:17;;;;;;;10.85;6.78;;;;;;;26.48;51.52;101108.71;1486924;95;21130;-49
2021/06/08 15:14:13;;;;;;;19.73;9.43;;;;;;;26.53;51.53;101109.16;1474658;95;21789;-49
2021/06/08 15:16:40;;;;;;;9.40;4.92;;;;;;;26.53;51.53;101109.16;1501892;94;21081;-49
2021/06/08 15:19:07;;;;;;;9.83;4.37;;;;;;;26.59;51.69;101109.51;1497489;94;21649;-50
2021/06/08 15:21:36;;;;;;;6.47;2.95;;;;;;;26.63;51.57;101116.28;1496323;94;21588;-49
2021/06/08 15:24:04;;;;;;;7.15;3.10;;;;;;;26.66;50.69;101109.85;1484753;93;21612;-50
2021/06/08 15:26:31;;;;;;;4.42;2.55;;;;;;;26.73;49.93;101118.23;1489048;94;21065;-50
2021/06/08 15:29:03;;;;;;;3.10;1.95;;;;;;;26.78;48.63;101110.67;1491997;94;21564;-50
2021/06/08 15:31:48;;;;;;;2.00;1.80;;;;;;;26.81;47.31;101116.59;1470824;95;21616;-50
2021/06/08 15:34:18;;;;;;;;;;;;;;;26.83;46.90;101113.31;1476985;95;21118;-50
2021/06/08 15:36:56;;;;;;;6.90;1.90;;;;;;;26.87;46.86;101115.26;1527206;92;20130;-50
2021/06/08 15:39:31;;;;;;;4.17;1.87;;;;;;;26.89;46.81;101120.84;1519862;93;21100;-49
2021/06/08 15:42:04;;;;;;;2.55;2.08;;;;;;;26.89;46.59;101122.17;1453158;97;21077;-49
2021/06/08 15:44:32;;;;;;;2.72;2.40;;;;;;;26.88;46.57;101120.46;1521716;93;21596;-49
2021/06/08 15:47:04;;;;;;;4.85;2.70;;;;;;;26.86;46.58;101118.41;1512721;93;21098;-49
2021/06/08 15:49:33;;;;;;;4.62;2.42;;;;;;;26.84;46.98;101116.84;1521720;92;21131;-49
2021/06/08 15:52:04;;;;;;;5.90;3.10;;;;;;;26.82;47.32;101122.79;1479515;94;21141;-49
2021/06/08 15:54:39;;;;;;;4.45;2.98;;;;;;;26.81;47.49;101123.27;1554510;90;21565;-50
2021/06/08 15:57:27;;;;;;;7.50;3.33;;;;;;;26.80;47.58;101120.26;1591631;89;21050;-49
2021/06/08 16:00:07;;;;;;;9.28;4.00;;;;;;;26.79;47.29;101117.73;1530691;93;21078;-49
2021/06/08 16:02:36;;;;;;;8.90;4.60;;;;;;;26.77;47.75;101120.50;1519109;94;21143;-49
2021/06/08 16:05:12;;;;;;;6.70;3.17;;;;;;;26.74;48.04;101116.77;1548355;92;21582;-49
2021/06/08 16:07:49;;;;;;;6.85;2.90;;;;;;;26.73;48.18;101119.06;1516575;94;21075;-49
2021/06/08 16:10:24;;;;;;;2.60;2.40;;;;;;;26.72;48.46;101125.39;1483374;95;21107;-49
2021/06/08 16:13:02;;;;;;;5.25;2.22;;;;;;;26.71;48.83;101120.98;1463045;97;21097;-49
2021/06/08 16:15:35;;;;;;;5.20;2.05;;;;;;;26.73;48.83;101118.23;1459976;97;21121;-49
2021/06/08 16:18:08;;;;;;;5.57;2.30;;;;;;;26.75;48.99;101121.63;1443119;97;21147;-49
2021/06/08 16:20:37;;;;;;;4.30;2.20;;;;;;;26.77;49.24;101120.50;1431018;98;21128;-49
2021/06/08 16:23:06;;;;;;;3.02;1.80;;;;;;;26.80;49.31;101119.41;1452757;97;21034;-49
2021/06/08 16:25:52;;;;;;;2.20;2.00;;;;;;;26.81;48.98;101127.28;1466276;97;21139;-49
2021/06/08 16:28:38;;;;;;;3.95;1.98;;;;;;;26.81;48.89;101129.95;1376406;102;21105;-49
2021/06/08 16:31:05;;;;;;;4.12;1.92;;;;;;;26.78;48.79;101127.55;1386886;101;21681;-49
2021/06/08 16:33:32;;;;;;;5.08;1.77;;;;;;;26.75;49.02;101120.30;1390457;102;21148;-48
2021/06/08 16:35:58;;;;;;;3.45;1.92;;;;;;;26.71;49.11;101107.63;1391949;102;21097;-49
2021/06/08 16:38:25;;;;;;;8.68;2.22;;;;;;;26.70;49.27;101116.62;1393685;101;21208;-49
2021/06/08 16:40:52;;;;;;;3.52;2.22;;;;;;;26.68;49.55;101118.58;1401286;100;21162;-50
2021/06/08 16:43:19;;;;;;;4.30;2.02;;;;;;;26.69;49.49;101119.44;1411657;101;21670;-49
2021/06/08 16:45:46;;;;;;;4.37;2.25;;;;;;;26.68;49.62;101129.73;1401173;101;21156;-49
2021/06/08 16:48:13;;;;;;;3.20;1.95;;;;;;;26.68;49.49;101137.27;1446290;94;21167;-50
2021/06/08 16:50:48;;;;;;;2.77;1.98;;;;;;;26.68;49.21;101144.42;1489749;95;21068;-49
2021/06/08 16:53:14;;;;;;;4.80;2.62;;;;;;;26.66;49.07;101169.91;1490401;95;21058;-50
2021/06/08 16:55:44;;;;;;;9.68;6.00;;;;;;;26.66;49.07;101169.91;1499176;94;21599;-50